sensor_id;sensor_type;location;lat;lon;timestamp;temperature;humidity
26186;DHT22;20067;48.764;9.176;2024-03-02T00:01:10;8.70;91.30
26186;DHT22;20067;48.764;9.176;2024-03-02T00:03:37;8.60;91.30
26186;DHT22;20067;48.764;9.176;2024-03-02T00:06:04;8.70;91.30
26186;DHT22;20067;48.764;9.176;2024-03-02T00:08:29;8.50;91.30
26186;DHT22;20067;48.764;9.176;2024-03-02T00:11:00;8.70;91.30
26186;DHT22;20067;48.764;9.176;2024-03-02T00:13:26;8.80;91.30
26186;DHT22;20067;48.764;9.176;2024-03-02T00:15:53;9.00;91.30
26186;DHT22;20067;48.764;9.176;2024-03-02T00:18:23;8.90;91.30
26186;DHT22;20067;48.764;9.176;2024-03-02T00:20:53;8.80;91.30
26186;DHT22;20067;48.764;9.176;2024-03-02T00:23:20;8.80;91.30
26186;DHT22;20067;48.764;9.176;2024-03-02T00:25:54;8.60;91.30
26186;DHT22;20067;48.764;9.176;2024-03-02T00:33:45;8.50;91.30
26186;DHT22;20067;48.764;9.176;2024-03-02T00:36:13;8.40;91.30
26186;DHT22;20067;48.764;9.176;2024-03-02T00:38:59;8.40;91.30
26186;DHT22;20067;48.764;9.176;2024-03-02T00:41:28;8.40;91.30
26186;DHT22;20067;48.764;9.176;2024-03-02T00:44:04;8.40;91.30
26186;DHT22;20067;48.764;9.176;2024-03-02T00:46:39;8.40;91.30
26186;DHT22;20067;48.764;9.176;2024-03-02T00:51:36;8.20;91.30
26186;DHT22;20067;48.764;9.176;2024-03-02T00:54:05;8.20;91.30
26186;DHT22;20067;48.764;9.176;2024-03-02T00:56:32;8.20;91.30
26186;DHT22;20067;48.764;9.176;2024-03-02T00:58:58;8.20;91.30
26186;DHT22;20067;48.764;9.176;2024-03-02T01:01:24;8.20;91.30
26186;DHT22;20067;48.764;9.176;2024-03-02T01:03:50;8.10;91.30
26186;DHT22;20067;48.764;9.176;2024-03-02T01:06:16;8.20;91.30
26186;DHT22;20067;48.764;9.176;2024-03-02T01:08:42;8.20;91.30
26186;DHT22;20067;48.764;9.176;2024-03-02T01:11:08;8.20;91.30
26186;DHT22;20067;48.764;9.176;2024-03-02T01:13:34;8.20;91.30
26186;DHT22;20067;48.764;9.176;2024-03-02T01:16:01;8.20;91.30
26186;DHT22;20067;48.764;9.176;2024-03-02T01:18:27;8.20;91.30
26186;DHT22;20067;48.764;9.176;2024-03-02T01:20:53;8.30;91.30
26186;DHT22;20067;48.764;9.176;2024-03-02T01:23:20;8.30;91.30
26186;DHT22;20067;48.764;9.176;2024-03-02T01:25:49;8.30;91.30
26186;DHT22;20067;48.764;9.176;2024-03-02T01:28:15;8.30;91.30
26186;DHT22;20067;48.764;9.176;2024-03-02T01:30:41;8.40;91.30
26186;DHT22;20067;48.764;9.176;2024-03-02T01:33:07;8.40;91.30
26186;DHT22;20067;48.764;9.176;2024-03-02T01:35:32;8.40;91.30
26186;DHT22;20067;48.764;9.176;2024-03-02T01:37:58;8.30;91.30
26186;DHT22;20067;48.764;9.176;2024-03-02T01:40:24;8.30;91.30
26186;DHT22;20067;48.764;9.176;2024-03-02T01:42:52;8.30;91.30
26186;DHT22;20067;48.764;9.176;2024-03-02T01:45:19;8.40;91.30
26186;DHT22;20067;48.764;9.176;2024-03-02T01:47:45;8.50;91.30
26186;DHT22;20067;48.764;9.176;2024-03-02T01:50:13;8.50;91.30
26186;DHT22;20067;48.764;9.176;2024-03-02T01:52:40;8.60;91.30
26186;DHT22;20067;48.764;9.176;2024-03-02T01:55:06;8.60;91.30
26186;DHT22;20067;48.764;9.176;2024-03-02T01:57:33;8.60;91.30
26186;DHT22;20067;48.764;9.176;2024-03-02T02:00:00;8.50;91.30
26186;DHT22;20067;48.764;9.176;2024-03-02T02:02:25;8.40;91.30
26186;DHT22;20067;48.764;9.176;2024-03-02T02:04:51;8.40;91.30
26186;DHT22;20067;48.764;9.176;2024-03-02T02:07:17;8.50;91.30
26186;DHT22;20067;48.764;9.176;2024-03-02T02:09:42;8.50;91.30
26186;DHT22;20067;48.764;9.176;2024-03-02T02:12:09;8.60;91.30
26186;DHT22;20067;48.764;9.176;2024-03-02T02:14:35;8.60;91.30
26186;DHT22;20067;48.764;9.176;2024-03-02T02:17:01;8.40;91.30
26186;DHT22;20067;48.764;9.176;2024-03-02T02:19:27;8.30;91.30
26186;DHT22;20067;48.764;9.176;2024-03-02T02:21:52;8.00;91.30
26186;DHT22;20067;48.764;9.176;2024-03-02T02:24:18;7.90;91.30
26186;DHT22;20067;48.764;9.176;2024-03-02T02:26:44;7.90;91.30
26186;DHT22;20067;48.764;9.176;2024-03-02T02:29:09;8.10;91.30
26186;DHT22;20067;48.764;9.176;2024-03-02T02:31:38;8.10;91.30
26186;DHT22;20067;48.764;9.176;2024-03-02T02:34:05;7.90;91.30
26186;DHT22;20067;48.764;9.176;2024-03-02T02:36:31;8.00;91.30
26186;DHT22;20067;48.764;9.176;2024-03-02T02:38:57;8.00;91.30
26186;DHT22;20067;48.764;9.176;2024-03-02T02:41:24;7.90;91.30
26186;DHT22;20067;48.764;9.176;2024-03-02T02:43:49;7.50;91.30
26186;DHT22;20067;48.764;9.176;2024-03-02T02:46:15;7.50;91.30
26186;DHT22;20067;48.764;9.176;2024-03-02T02:48:41;7.50;91.30
26186;DHT22;20067;48.764;9.176;2024-03-02T02:51:06;7.70;91.30
26186;DHT22;20067;48.764;9.176;2024-03-02T02:53:32;7.60;91.30
26186;DHT22;20067;48.764;9.176;2024-03-02T02:55:57;7.60;91.30
26186;DHT22;20067;48.764;9.176;2024-03-02T02:58:23;7.70;91.30
26186;DHT22;20067;48.764;9.176;2024-03-02T03:00:49;7.80;91.30
26186;DHT22;20067;48.764;9.176;2024-03-02T03:03:14;7.40;91.30
26186;DHT22;20067;48.764;9.176;2024-03-02T03:05:40;7.20;91.30
26186;DHT22;20067;48.764;9.176;2024-03-02T03:08:05;6.80;91.30
26186;DHT22;20067;48.764;9.176;2024-03-02T03:10:31;6.80;91.30
26186;DHT22;20067;48.764;9.176;2024-03-02T03:12:57;6.80;91.30
26186;DHT22;20067;48.764;9.176;2024-03-02T03:15:22;6.80;91.30
26186;DHT22;20067;48.764;9.176;2024-03-02T03:17:48;6.90;91.30
26186;DHT22;20067;48.764;9.176;2024-03-02T03:20:14;6.80;91.30
26186;DHT22;20067;48.764;9.176;2024-03-02T03:22:40;7.10;91.30
26186;DHT22;20067;48.764;9.176;2024-03-02T03:25:06;7.30;91.30
26186;DHT22;20067;48.764;9.176;2024-03-02T03:27:33;7.30;91.30
26186;DHT22;20067;48.764;9.176;2024-03-02T03:29:59;7.30;91.30
26186;DHT22;20067;48.764;9.176;2024-03-02T03:32:25;7.30;91.30
26186;DHT22;20067;48.764;9.176;2024-03-02T03:34:50;7.40;91.30
26186;DHT22;20067;48.764;9.176;2024-03-02T03:37:16;7.30;91.30
26186;DHT22;20067;48.764;9.176;2024-03-02T03:39:41;7.20;91.30
26186;DHT22;20067;48.764;9.176;2024-03-02T03:42:07;7.30;91.30
26186;DHT22;20067;48.764;9.176;2024-03-02T03:44:33;7.30;91.30
26186;DHT22;20067;48.764;9.176;2024-03-02T03:46:59;7.10;91.30
26186;DHT22;20067;48.764;9.176;2024-03-02T03:49:26;7.20;91.30
26186;DHT22;20067;48.764;9.176;2024-03-02T03:51:52;7.30;91.30
26186;DHT22;20067;48.764;9.176;2024-03-02T03:54:17;7.30;91.30
26186;DHT22;20067;48.764;9.176;2024-03-02T03:56:43;7.30;91.30
26186;DHT22;20067;48.764;9.176;2024-03-02T03:59:08;7.30;91.30
26186;DHT22;20067;48.764;9.176;2024-03-02T04:01:34;7.10;91.30
26186;DHT22;20067;48.764;9.176;2024-03-02T04:04:00;7.20;91.30
26186;DHT22;20067;48.764;9.176;2024-03-02T04:06:27;7.10;91.30
26186;DHT22;20067;48.764;9.176;2024-03-02T04:08:53;7.10;91.30
26186;DHT22;20067;48.764;9.176;2024-03-02T04:11:18;7.00;91.30
26186;DHT22;20067;48.764;9.176;2024-03-02T04:13:44;6.90;91.30
26186;DHT22;20067;48.764;9.176;2024-03-02T04:16:09;7.00;91.30
26186;DHT22;20067;48.764;9.176;2024-03-02T04:18:35;7.10;91.30
26186;DHT22;20067;48.764;9.176;2024-03-02T04:21:00;7.20;91.30
26186;DHT22;20067;48.764;9.176;2024-03-02T04:23:26;7.30;91.30
26186;DHT22;20067;48.764;9.176;2024-03-02T04:25:52;6.90;91.30
26186;DHT22;20067;48.764;9.176;2024-03-02T04:28:18;6.90;91.30
26186;DHT22;20067;48.764;9.176;2024-03-02T04:30:43;6.90;91.30
26186;DHT22;20067;48.764;9.176;2024-03-02T04:33:09;7.10;91.30
26186;DHT22;20067;48.764;9.176;2024-03-02T04:35:36;7.20;91.30
26186;DHT22;20067;48.764;9.176;2024-03-02T04:38:01;7.00;91.30
26186;DHT22;20067;48.764;9.176;2024-03-02T04:40:27;7.00;91.30
26186;DHT22;20067;48.764;9.176;2024-03-02T04:42:53;7.00;91.30
26186;DHT22;20067;48.764;9.176;2024-03-02T04:45:18;7.10;91.30
26186;DHT22;20067;48.764;9.176;2024-03-02T04:47:44;6.90;91.30
26186;DHT22;20067;48.764;9.176;2024-03-02T04:50:10;6.90;91.30
26186;DHT22;20067;48.764;9.176;2024-03-02T04:52:35;6.90;91.30
26186;DHT22;20067;48.764;9.176;2024-03-02T04:55:01;7.00;91.30
26186;DHT22;20067;48.764;9.176;2024-03-02T04:57:55;7.00;91.30
26186;DHT22;20067;48.764;9.176;2024-03-02T05:00:21;6.90;91.30
26186;DHT22;20067;48.764;9.176;2024-03-02T05:02:47;7.00;91.30
26186;DHT22;20067;48.764;9.176;2024-03-02T05:05:13;6.90;91.30
26186;DHT22;20067;48.764;9.176;2024-03-02T05:07:40;6.90;91.30
26186;DHT22;20067;48.764;9.176;2024-03-02T05:10:08;6.80;91.30
26186;DHT22;20067;48.764;9.176;2024-03-02T05:12:34;6.60;91.30
26186;DHT22;20067;48.764;9.176;2024-03-02T05:15:09;6.70;91.30
26186;DHT22;20067;48.764;9.176;2024-03-02T05:17:36;6.70;91.30
26186;DHT22;20067;48.764;9.176;2024-03-02T05:20:03;6.70;91.30
26186;DHT22;20067;48.764;9.176;2024-03-02T05:22:29;6.70;91.30
26186;DHT22;20067;48.764;9.176;2024-03-02T05:27:22;6.70;91.30
26186;DHT22;20067;48.764;9.176;2024-03-02T05:29:48;6.50;91.30
26186;DHT22;20067;48.764;9.176;2024-03-02T05:32:13;6.40;91.30
26186;DHT22;20067;48.764;9.176;2024-03-02T05:34:39;6.40;91.30
26186;DHT22;20067;48.764;9.176;2024-03-02T05:37:04;6.50;91.30
26186;DHT22;20067;48.764;9.176;2024-03-02T05:39:30;6.30;91.30
26186;DHT22;20067;48.764;9.176;2024-03-02T05:41:56;6.30;91.30
26186;DHT22;20067;48.764;9.176;2024-03-02T05:44:21;6.40;91.30
26186;DHT22;20067;48.764;9.176;2024-03-02T05:46:47;6.40;91.30
26186;DHT22;20067;48.764;9.176;2024-03-02T05:49:13;6.50;91.30
26186;DHT22;20067;48.764;9.176;2024-03-02T05:51:39;6.50;91.30
26186;DHT22;20067;48.764;9.176;2024-03-02T05:54:04;6.30;91.30
26186;DHT22;20067;48.764;9.176;2024-03-02T05:56:30;6.20;91.30
26186;DHT22;20067;48.764;9.176;2024-03-02T05:58:56;6.00;91.30
26186;DHT22;20067;48.764;9.176;2024-03-02T06:01:44;6.10;91.30
26186;DHT22;20067;48.764;9.176;2024-03-02T06:04:10;6.30;91.30
26186;DHT22;20067;48.764;9.176;2024-03-02T06:06:39;6.50;91.30
26186;DHT22;20067;48.764;9.176;2024-03-02T06:09:05;6.70;91.30
26186;DHT22;20067;48.764;9.176;2024-03-02T06:11:36;6.70;91.30
26186;DHT22;20067;48.764;9.176;2024-03-02T06:14:02;6.60;91.30
26186;DHT22;20067;48.764;9.176;2024-03-02T06:16:28;6.30;91.30
26186;DHT22;20067;48.764;9.176;2024-03-02T06:18:54;6.30;91.30
26186;DHT22;20067;48.764;9.176;2024-03-02T06:21:20;6.50;91.30
26186;DHT22;20067;48.764;9.176;2024-03-02T06:23:46;6.30;91.30
26186;DHT22;20067;48.764;9.176;2024-03-02T06:26:12;6.40;91.30
26186;DHT22;20067;48.764;9.176;2024-03-02T06:28:38;6.40;91.30
26186;DHT22;20067;48.764;9.176;2024-03-02T06:31:04;6.60;91.30
26186;DHT22;20067;48.764;9.176;2024-03-02T06:33:29;6.70;91.30
26186;DHT22;20067;48.764;9.176;2024-03-02T06:35:55;6.60;91.30
26186;DHT22;20067;48.764;9.176;2024-03-02T06:38:21;6.60;91.30
26186;DHT22;20067;48.764;9.176;2024-03-02T06:40:46;6.80;91.30
26186;DHT22;20067;48.764;9.176;2024-03-02T06:43:12;6.80;91.30
26186;DHT22;20067;48.764;9.176;2024-03-02T06:45:38;6.60;91.30
26186;DHT22;20067;48.764;9.176;2024-03-02T06:48:03;6.70;91.30
26186;DHT22;20067;48.764;9.176;2024-03-02T06:50:29;6.80;91.30
26186;DHT22;20067;48.764;9.176;2024-03-02T06:52:55;6.90;91.30
26186;DHT22;20067;48.764;9.176;2024-03-02T06:55:23;7.10;91.30
26186;DHT22;20067;48.764;9.176;2024-03-02T06:57:50;7.30;91.30
26186;DHT22;20067;48.764;9.176;2024-03-02T07:00:16;7.00;91.30
26186;DHT22;20067;48.764;9.176;2024-03-02T07:02:43;6.90;91.30
26186;DHT22;20067;48.764;9.176;2024-03-02T07:05:10;6.80;91.30
26186;DHT22;20067;48.764;9.176;2024-03-02T07:07:36;7.10;91.30
26186;DHT22;20067;48.764;9.176;2024-03-02T07:10:04;6.80;91.30
26186;DHT22;20067;48.764;9.176;2024-03-02T07:12:29;6.80;91.30
26186;DHT22;20067;48.764;9.176;2024-03-02T07:14:56;6.90;91.30
26186;DHT22;20067;48.764;9.176;2024-03-02T07:17:28;7.00;91.30
26186;DHT22;20067;48.764;9.176;2024-03-02T07:19:53;7.10;91.30
26186;DHT22;20067;48.764;9.176;2024-03-02T07:22:19;7.40;91.30
26186;DHT22;20067;48.764;9.176;2024-03-02T07:24:45;7.30;91.30
26186;DHT22;20067;48.764;9.176;2024-03-02T07:27:14;7.50;91.30
26186;DHT22;20067;48.764;9.176;2024-03-02T07:29:40;7.60;91.30
26186;DHT22;20067;48.764;9.176;2024-03-02T07:32:06;7.90;91.30
26186;DHT22;20067;48.764;9.176;2024-03-02T07:34:32;7.80;91.30
26186;DHT22;20067;48.764;9.176;2024-03-02T07:36:58;7.90;91.30
26186;DHT22;20067;48.764;9.176;2024-03-02T07:39:24;8.30;91.30
26186;DHT22;20067;48.764;9.176;2024-03-02T07:41:50;8.30;91.30
26186;DHT22;20067;48.764;9.176;2024-03-02T07:44:16;8.40;91.30
26186;DHT22;20067;48.764;9.176;2024-03-02T07:46:42;8.40;91.30
26186;DHT22;20067;48.764;9.176;2024-03-02T07:49:08;8.50;91.30
26186;DHT22;20067;48.764;9.176;2024-03-02T07:51:34;8.40;91.30
26186;DHT22;20067;48.764;9.176;2024-03-02T07:53:59;8.60;91.30
26186;DHT22;20067;48.764;9.176;2024-03-02T07:56:26;8.70;91.30
26186;DHT22;20067;48.764;9.176;2024-03-02T07:58:51;8.70;91.30
26186;DHT22;20067;48.764;9.176;2024-03-02T08:01:17;8.90;91.30
26186;DHT22;20067;48.764;9.176;2024-03-02T08:03:43;8.80;91.30
26186;DHT22;20067;48.764;9.176;2024-03-02T08:06:16;9.00;91.30
26186;DHT22;20067;48.764;9.176;2024-03-02T08:08:42;8.70;91.30
26186;DHT22;20067;48.764;9.176;2024-03-02T08:11:08;8.70;91.30
26186;DHT22;20067;48.764;9.176;2024-03-02T08:13:34;8.80;91.30
26186;DHT22;20067;48.764;9.176;2024-03-02T08:16:00;9.00;91.30
26186;DHT22;20067;48.764;9.176;2024-03-02T08:18:28;9.40;91.30
26186;DHT22;20067;48.764;9.176;2024-03-02T08:20:54;9.50;91.30
26186;DHT22;20067;48.764;9.176;2024-03-02T08:23:20;9.40;91.30
26186;DHT22;20067;48.764;9.176;2024-03-02T08:25:45;9.30;91.30
26186;DHT22;20067;48.764;9.176;2024-03-02T08:28:12;9.50;91.30
26186;DHT22;20067;48.764;9.176;2024-03-02T08:30:38;9.60;91.30
26186;DHT22;20067;48.764;9.176;2024-03-02T08:33:04;10.10;91.30
26186;DHT22;20067;48.764;9.176;2024-03-02T08:35:31;10.90;91.30
26186;DHT22;20067;48.764;9.176;2024-03-02T08:38:01;11.60;91.30
26186;DHT22;20067;48.764;9.176;2024-03-02T08:40:28;11.80;91.30
26186;DHT22;20067;48.764;9.176;2024-03-02T08:42:54;11.30;91.30
26186;DHT22;20067;48.764;9.176;2024-03-02T08:45:20;12.60;91.30
26186;DHT22;20067;48.764;9.176;2024-03-02T08:47:46;14.00;88.20
26186;DHT22;20067;48.764;9.176;2024-03-02T08:50:12;14.30;84.60
26186;DHT22;20067;48.764;9.176;2024-03-02T08:52:38;14.70;85.00
26186;DHT22;20067;48.764;9.176;2024-03-02T08:55:04;14.90;82.10
26186;DHT22;20067;48.764;9.176;2024-03-02T08:57:31;14.80;82.40
26186;DHT22;20067;48.764;9.176;2024-03-02T08:59:57;16.00;80.80
26186;DHT22;20067;48.764;9.176;2024-03-02T09:02:23;17.20;77.10
26186;DHT22;20067;48.764;9.176;2024-03-02T09:04:49;16.20;77.30
26186;DHT22;20067;48.764;9.176;2024-03-02T09:07:15;16.50;77.80
26186;DHT22;20067;48.764;9.176;2024-03-02T09:09:41;18.00;74.90
26186;DHT22;20067;48.764;9.176;2024-03-02T09:12:07;18.20;73.00
26186;DHT22;20067;48.764;9.176;2024-03-02T09:14:33;19.20;71.60
26186;DHT22;20067;48.764;9.176;2024-03-02T09:16:59;19.60;70.40
26186;DHT22;20067;48.764;9.176;2024-03-02T09:19:25;19.40;69.60
26186;DHT22;20067;48.764;9.176;2024-03-02T09:21:50;18.90;71.10
26186;DHT22;20067;48.764;9.176;2024-03-02T09:24:16;18.60;70.20
26186;DHT22;20067;48.764;9.176;2024-03-02T09:26:43;18.40;72.00
26186;DHT22;20067;48.764;9.176;2024-03-02T09:29:09;17.60;72.30
26186;DHT22;20067;48.764;9.176;2024-03-02T09:31:42;17.10;74.00
26186;DHT22;20067;48.764;9.176;2024-03-02T09:34:08;17.20;73.50
26186;DHT22;20067;48.764;9.176;2024-03-02T09:36:33;17.30;73.80
26186;DHT22;20067;48.764;9.176;2024-03-02T09:38:59;18.00;73.00
26186;DHT22;20067;48.764;9.176;2024-03-02T09:41:25;17.90;72.30
26186;DHT22;20067;48.764;9.176;2024-03-02T09:43:51;17.80;72.90
26186;DHT22;20067;48.764;9.176;2024-03-02T09:46:16;17.40;74.30
26186;DHT22;20067;48.764;9.176;2024-03-02T09:48:44;17.80;73.60
26186;DHT22;20067;48.764;9.176;2024-03-02T09:51:11;18.10;73.20
26186;DHT22;20067;48.764;9.176;2024-03-02T09:53:37;17.80;74.10
26186;DHT22;20067;48.764;9.176;2024-03-02T09:56:03;19.10;71.10
26186;DHT22;20067;48.764;9.176;2024-03-02T09:58:30;19.80;69.80
26186;DHT22;20067;48.764;9.176;2024-03-02T10:00:55;20.40;67.80
26186;DHT22;20067;48.764;9.176;2024-03-02T10:03:23;20.20;67.80
26186;DHT22;20067;48.764;9.176;2024-03-02T10:05:50;21.30;67.00
26186;DHT22;20067;48.764;9.176;2024-03-02T10:08:15;21.50;64.40
26186;DHT22;20067;48.764;9.176;2024-03-02T10:10:41;21.90;63.70
26186;DHT22;20067;48.764;9.176;2024-03-02T10:13:10;21.10;63.30
26186;DHT22;20067;48.764;9.176;2024-03-02T10:15:37;20.20;65.30
26186;DHT22;20067;48.764;9.176;2024-03-02T10:18:04;20.00;66.20
26186;DHT22;20067;48.764;9.176;2024-03-02T10:20:30;19.80;67.20
26186;DHT22;20067;48.764;9.176;2024-03-02T10:23:11;20.30;66.30
26186;DHT22;20067;48.764;9.176;2024-03-02T10:25:38;20.10;66.70
26186;DHT22;20067;48.764;9.176;2024-03-02T10:28:04;19.80;67.00
26186;DHT22;20067;48.764;9.176;2024-03-02T10:30:34;20.00;66.30
26186;DHT22;20067;48.764;9.176;2024-03-02T10:33:04;20.50;66.20
26186;DHT22;20067;48.764;9.176;2024-03-02T10:35:30;20.10;66.60
26186;DHT22;20067;48.764;9.176;2024-03-02T10:37:59;19.40;69.40
26186;DHT22;20067;48.764;9.176;2024-03-02T10:40:26;20.20;66.50
26186;DHT22;20067;48.764;9.176;2024-03-02T10:42:52;20.10;66.00
26186;DHT22;20067;48.764;9.176;2024-03-02T10:45:20;20.30;66.60
26186;DHT22;20067;48.764;9.176;2024-03-02T10:47:49;21.30;65.40
26186;DHT22;20067;48.764;9.176;2024-03-02T10:50:15;20.50;65.80
26186;DHT22;20067;48.764;9.176;2024-03-02T10:52:42;19.80;67.70
26186;DHT22;20067;48.764;9.176;2024-03-02T10:55:11;20.40;67.30
26186;DHT22;20067;48.764;9.176;2024-03-02T11:00:12;21.50;65.50
26186;DHT22;20067;48.764;9.176;2024-03-02T11:03:04;21.10;65.10
26186;DHT22;20067;48.764;9.176;2024-03-02T11:05:38;20.50;66.40
26186;DHT22;20067;48.764;9.176;2024-03-02T11:08:08;20.80;66.90
26186;DHT22;20067;48.764;9.176;2024-03-02T11:10:41;21.60;65.50
26186;DHT22;20067;48.764;9.176;2024-03-02T11:13:12;22.10;64.60
26186;DHT22;20067;48.764;9.176;2024-03-02T11:15:40;22.00;62.80
26186;DHT22;20067;48.764;9.176;2024-03-02T11:18:06;22.10;62.40
26186;DHT22;20067;48.764;9.176;2024-03-02T11:20:36;23.00;62.10
26186;DHT22;20067;48.764;9.176;2024-03-02T11:23:07;22.60;61.00
26186;DHT22;20067;48.764;9.176;2024-03-02T11:25:34;22.50;60.90
26186;DHT22;20067;48.764;9.176;2024-03-02T11:28:04;21.20;61.40
26186;DHT22;20067;48.764;9.176;2024-03-02T11:32:59;21.30;62.20
26186;DHT22;20067;48.764;9.176;2024-03-02T11:35:26;21.20;61.00
26186;DHT22;20067;48.764;9.176;2024-03-02T11:37:52;21.80;60.20
26186;DHT22;20067;48.764;9.176;2024-03-02T11:40:36;21.90;59.20
26186;DHT22;20067;48.764;9.176;2024-03-02T11:43:05;22.30;59.70
26186;DHT22;20067;48.764;9.176;2024-03-02T11:45:31;22.30;58.00
26186;DHT22;20067;48.764;9.176;2024-03-02T11:47:59;22.30;57.70
26186;DHT22;20067;48.764;9.176;2024-03-02T11:53:07;19.20;63.00
26186;DHT22;20067;48.764;9.176;2024-03-02T11:55:38;18.50;65.40
26186;DHT22;20067;48.764;9.176;2024-03-02T11:58:05;17.90;67.10
26186;DHT22;20067;48.764;9.176;2024-03-02T12:00:31;17.60;68.10
26186;DHT22;20067;48.764;9.176;2024-03-02T12:03:07;17.40;69.30
26186;DHT22;20067;48.764;9.176;2024-03-02T12:05:34;17.40;67.90
26186;DHT22;20067;48.764;9.176;2024-03-02T12:08:04;17.30;67.90
26186;DHT22;20067;48.764;9.176;2024-03-02T12:10:30;17.50;67.90
26186;DHT22;20067;48.764;9.176;2024-03-02T12:13:00;17.70;68.00
26186;DHT22;20067;48.764;9.176;2024-03-02T12:15:28;17.30;69.50
26186;DHT22;20067;48.764;9.176;2024-03-02T12:17:55;17.20;70.30
26186;DHT22;20067;48.764;9.176;2024-03-02T12:20:21;17.20;70.60
26186;DHT22;20067;48.764;9.176;2024-03-02T12:22:55;17.40;70.00
26186;DHT22;20067;48.764;9.176;2024-03-02T12:25:24;17.20;68.70
26186;DHT22;20067;48.764;9.176;2024-03-02T12:27:52;16.70;69.80
26186;DHT22;20067;48.764;9.176;2024-03-02T12:30:18;16.30;71.30
26186;DHT22;20067;48.764;9.176;2024-03-02T12:32:48;16.20;71.90
26186;DHT22;20067;48.764;9.176;2024-03-02T12:35:14;16.30;70.30
26186;DHT22;20067;48.764;9.176;2024-03-02T12:37:49;16.20;70.70
26186;DHT22;20067;48.764;9.176;2024-03-02T12:40:16;16.30;71.30
26186;DHT22;20067;48.764;9.176;2024-03-02T12:42:46;16.30;71.00
26186;DHT22;20067;48.764;9.176;2024-03-02T12:45:12;16.30;70.30
26186;DHT22;20067;48.764;9.176;2024-03-02T12:47:40;16.10;72.00
26186;DHT22;20067;48.764;9.176;2024-03-02T12:50:07;16.00;72.60
26186;DHT22;20067;48.764;9.176;2024-03-02T12:52:33;15.90;72.40
26186;DHT22;20067;48.764;9.176;2024-03-02T12:55:04;16.00;72.20
26186;DHT22;20067;48.764;9.176;2024-03-02T12:57:31;15.80;72.60
26186;DHT22;20067;48.764;9.176;2024-03-02T13:00:02;15.80;72.90
26186;DHT22;20067;48.764;9.176;2024-03-02T13:02:34;15.70;73.10
26186;DHT22;20067;48.764;9.176;2024-03-02T13:05:00;16.20;72.40
26186;DHT22;20067;48.764;9.176;2024-03-02T13:07:26;16.30;72.30
26186;DHT22;20067;48.764;9.176;2024-03-02T13:09:53;16.30;72.10
26186;DHT22;20067;48.764;9.176;2024-03-02T13:12:23;16.30;72.00
26186;DHT22;20067;48.764;9.176;2024-03-02T13:14:52;16.40;72.70
26186;DHT22;20067;48.764;9.176;2024-03-02T13:17:20;16.50;72.40
26186;DHT22;20067;48.764;9.176;2024-03-02T13:19:58;16.50;73.20
26186;DHT22;20067;48.764;9.176;2024-03-02T13:22:24;16.80;71.00
26186;DHT22;20067;48.764;9.176;2024-03-02T13:24:51;16.60;70.60
26186;DHT22;20067;48.764;9.176;2024-03-02T13:27:17;16.40;70.90
26186;DHT22;20067;48.764;9.176;2024-03-02T13:29:47;16.40;71.40
26186;DHT22;20067;48.764;9.176;2024-03-02T13:32:13;16.40;71.60
26186;DHT22;20067;48.764;9.176;2024-03-02T13:34:39;16.20;71.60
26186;DHT22;20067;48.764;9.176;2024-03-02T13:37:05;16.30;71.70
26186;DHT22;20067;48.764;9.176;2024-03-02T13:39:31;16.50;71.30
26186;DHT22;20067;48.764;9.176;2024-03-02T13:42:00;16.50;71.00
26186;DHT22;20067;48.764;9.176;2024-03-02T13:44:31;16.60;71.20
26186;DHT22;20067;48.764;9.176;2024-03-02T13:46:57;16.60;71.00
26186;DHT22;20067;48.764;9.176;2024-03-02T13:49:23;16.50;70.60
26186;DHT22;20067;48.764;9.176;2024-03-02T13:51:49;16.20;71.20
26186;DHT22;20067;48.764;9.176;2024-03-02T13:54:15;16.20;71.80
26186;DHT22;20067;48.764;9.176;2024-03-02T13:56:41;16.40;72.10
26186;DHT22;20067;48.764;9.176;2024-03-02T13:59:07;16.40;71.40
26186;DHT22;20067;48.764;9.176;2024-03-02T14:01:33;16.60;71.80
26186;DHT22;20067;48.764;9.176;2024-03-02T14:03:59;16.70;71.90
26186;DHT22;20067;48.764;9.176;2024-03-02T14:06:25;16.50;70.50
26186;DHT22;20067;48.764;9.176;2024-03-02T14:08:53;16.30;71.50
26186;DHT22;20067;48.764;9.176;2024-03-02T14:11:19;16.40;71.20
26186;DHT22;20067;48.764;9.176;2024-03-02T14:13:45;16.70;70.50
26186;DHT22;20067;48.764;9.176;2024-03-02T14:16:19;16.90;69.60
26186;DHT22;20067;48.764;9.176;2024-03-02T14:18:44;16.90;68.80
26186;DHT22;20067;48.764;9.176;2024-03-02T14:21:10;16.80;69.00
26186;DHT22;20067;48.764;9.176;2024-03-02T14:23:36;16.80;69.20
26186;DHT22;20067;48.764;9.176;2024-03-02T14:26:01;16.90;69.20
26186;DHT22;20067;48.764;9.176;2024-03-02T14:28:27;17.00;69.00
26186;DHT22;20067;48.764;9.176;2024-03-02T14:30:53;16.90;69.10
26186;DHT22;20067;48.764;9.176;2024-03-02T14:33:19;16.90;69.30
26186;DHT22;20067;48.764;9.176;2024-03-02T14:35:45;16.80;69.40
26186;DHT22;20067;48.764;9.176;2024-03-02T14:38:11;16.90;69.80
26186;DHT22;20067;48.764;9.176;2024-03-02T14:40:37;17.20;68.50
26186;DHT22;20067;48.764;9.176;2024-03-02T14:43:04;17.00;67.80
26186;DHT22;20067;48.764;9.176;2024-03-02T14:45:29;17.00;66.70
26186;DHT22;20067;48.764;9.176;2024-03-02T14:47:56;17.00;66.90
26186;DHT22;20067;48.764;9.176;2024-03-02T14:50:25;17.00;67.00
26186;DHT22;20067;48.764;9.176;2024-03-02T14:52:51;16.90;66.90
26186;DHT22;20067;48.764;9.176;2024-03-02T14:55:17;16.90;67.30
26186;DHT22;20067;48.764;9.176;2024-03-02T14:57:42;17.00;67.30
26186;DHT22;20067;48.764;9.176;2024-03-02T15:00:09;16.70;67.60
26186;DHT22;20067;48.764;9.176;2024-03-02T15:02:37;16.70;67.30
26186;DHT22;20067;48.764;9.176;2024-03-02T15:05:03;16.70;66.80
26186;DHT22;20067;48.764;9.176;2024-03-02T15:07:29;16.60;66.70
26186;DHT22;20067;48.764;9.176;2024-03-02T15:09:55;16.80;66.30
26186;DHT22;20067;48.764;9.176;2024-03-02T15:12:20;17.00;66.50
26186;DHT22;20067;48.764;9.176;2024-03-02T15:14:46;17.00;65.70
26186;DHT22;20067;48.764;9.176;2024-03-02T15:17:13;16.80;65.90
26186;DHT22;20067;48.764;9.176;2024-03-02T15:19:45;16.70;66.40
26186;DHT22;20067;48.764;9.176;2024-03-02T15:22:11;16.70;66.30
26186;DHT22;20067;48.764;9.176;2024-03-02T15:24:38;16.50;66.30
26186;DHT22;20067;48.764;9.176;2024-03-02T15:27:05;16.30;66.70
26186;DHT22;20067;48.764;9.176;2024-03-02T15:29:37;16.30;66.80
26186;DHT22;20067;48.764;9.176;2024-03-02T15:32:03;16.50;66.00
26186;DHT22;20067;48.764;9.176;2024-03-02T15:34:32;16.50;66.60
26186;DHT22;20067;48.764;9.176;2024-03-02T15:36:59;16.50;67.00
26186;DHT22;20067;48.764;9.176;2024-03-02T15:39:25;16.30;66.30
26186;DHT22;20067;48.764;9.176;2024-03-02T15:41:51;16.30;66.40
26186;DHT22;20067;48.764;9.176;2024-03-02T15:44:17;16.30;66.70
26186;DHT22;20067;48.764;9.176;2024-03-02T15:46:43;16.20;66.20
26186;DHT22;20067;48.764;9.176;2024-03-02T15:49:09;16.30;66.20
26186;DHT22;20067;48.764;9.176;2024-03-02T15:51:35;16.20;66.70
26186;DHT22;20067;48.764;9.176;2024-03-02T15:54:04;15.80;66.80
26186;DHT22;20067;48.764;9.176;2024-03-02T15:56:30;15.60;67.90